sensor_id;sensor_type;location;lat;lon;timestamp;P1;durP1;ratioP1;P2;durP2;ratioP2
46875;SDS011;32866;50.160;14.768;2022-12-26T00:01:04;25.33;;;14.55;;
46875;SDS011;32866;50.160;14.768;2022-12-26T00:03:32;21.40;;;14.37;;
46875;SDS011;32866;50.160;14.768;2022-12-26T00:05:57;22.80;;;14.27;;
46875;SDS011;32866;50.160;14.768;2022-12-26T00:08:22;27.80;;;15.90;;
46875;SDS011;32866;50.160;14.768;2022-12-26T00:10:48;34.15;;;17.10;;
46875;SDS011;32866;50.160;14.768;2022-12-26T00:13:13;27.08;;;14.70;;
46875;SDS011;32866;50.160;14.768;2022-12-26T00:15:39;27.00;;;16.40;;
46875;SDS011;32866;50.160;14.768;2022-12-26T00:18:23;27.43;;;15.50;;
46875;SDS011;32866;50.160;14.768;2022-12-26T00:20:49;29.93;;;16.30;;
46875;SDS011;32866;50.160;14.768;2022-12-26T00:23:14;26.38;;;15.25;;
46875;SDS011;32866;50.160;14.768;2022-12-26T00:25:39;29.02;;;16.55;;
46875;SDS011;32866;50.160;14.768;2022-12-26T00:28:05;23.40;;;15.45;;
46875;SDS011;32866;50.160;14.768;2022-12-26T00:30:30;24.00;;;13.80;;
46875;SDS011;32866;50.160;14.768;2022-12-26T00:32:57;27.73;;;16.23;;
46875;SDS011;32866;50.160;14.768;2022-12-26T00:35:22;27.27;;;16.27;;
46875;SDS011;32866;50.160;14.768;2022-12-26T00:37:48;27.88;;;16.85;;
46875;SDS011;32866;50.160;14.768;2022-12-26T00:40:13;26.58;;;16.73;;
46875;SDS011;32866;50.160;14.768;2022-12-26T00:42:39;30.95;;;16.40;;
46875;SDS011;32866;50.160;14.768;2022-12-26T00:45:04;28.42;;;16.48;;
46875;SDS011;32866;50.160;14.768;2022-12-26T00:47:30;27.33;;;15.55;;
46875;SDS011;32866;50.160;14.768;2022-12-26T00:49:55;22.67;;;14.27;;
46875;SDS011;32866;50.160;14.768;2022-12-26T00:52:20;25.08;;;15.48;;
46875;SDS011;32866;50.160;14.768;2022-12-26T00:54:46;22.80;;;14.07;;
46875;SDS011;32866;50.160;14.768;2022-12-26T00:57:11;30.85;;;16.55;;
46875;SDS011;32866;50.160;14.768;2022-12-26T00:59:36;22.38;;;14.10;;
46875;SDS011;32866;50.160;14.768;2022-12-26T01:02:02;21.50;;;14.32;;
46875;SDS011;32866;50.160;14.768;2022-12-26T01:04:47;27.83;;;15.47;;
46875;SDS011;32866;50.160;14.768;2022-12-26T01:07:12;26.77;;;16.30;;
46875;SDS011;32866;50.160;14.768;2022-12-26T01:09:38;25.17;;;15.20;;
46875;SDS011;32866;50.160;14.768;2022-12-26T01:12:03;26.10;;;14.30;;
46875;SDS011;32866;50.160;14.768;2022-12-26T01:14:29;22.65;;;14.77;;
46875;SDS011;32866;50.160;14.768;2022-12-26T01:16:54;25.25;;;15.30;;
46875;SDS011;32866;50.160;14.768;2022-12-26T01:19:19;23.88;;;15.23;;
46875;SDS011;32866;50.160;14.768;2022-12-26T01:21:45;30.77;;;15.02;;
46875;SDS011;32866;50.160;14.768;2022-12-26T01:24:10;23.00;;;14.52;;
46875;SDS011;32866;50.160;14.768;2022-12-26T01:26:36;23.10;;;14.97;;
46875;SDS011;32866;50.160;14.768;2022-12-26T01:29:02;27.95;;;15.55;;
46875;SDS011;32866;50.160;14.768;2022-12-26T01:31:27;23.65;;;14.07;;
46875;SDS011;32866;50.160;14.768;2022-12-26T01:33:52;22.58;;;12.65;;
46875;SDS011;32866;50.160;14.768;2022-12-26T01:36:18;19.40;;;13.13;;
46875;SDS011;32866;50.160;14.768;2022-12-26T01:38:43;24.65;;;14.30;;
46875;SDS011;32866;50.160;14.768;2022-12-26T01:41:09;31.90;;;15.38;;
46875;SDS011;32866;50.160;14.768;2022-12-26T01:46:23;23.13;;;13.63;;
46875;SDS011;32866;50.160;14.768;2022-12-26T01:48:53;25.00;;;15.00;;
46875;SDS011;32866;50.160;14.768;2022-12-26T01:51:20;23.63;;;14.50;;
46875;SDS011;32866;50.160;14.768;2022-12-26T01:53:51;28.03;;;13.67;;
46875;SDS011;32866;50.160;14.768;2022-12-26T01:56:24;23.57;;;14.70;;
46875;SDS011;32866;50.160;14.768;2022-12-26T01:59:14;24.70;;;15.27;;
46875;SDS011;32866;50.160;14.768;2022-12-26T02:01:44;20.53;;;12.33;;
46875;SDS011;32866;50.160;14.768;2022-12-26T02:04:14;23.03;;;15.27;;
46875;SDS011;32866;50.160;14.768;2022-12-26T02:07:02;26.73;;;14.33;;
46875;SDS011;32866;50.160;14.768;2022-12-26T02:12:14;22.50;;;14.33;;
46875;SDS011;32866;50.160;14.768;2022-12-26T02:14:44;24.13;;;13.80;;
46875;SDS011;32866;50.160;14.768;2022-12-26T02:17:11;27.33;;;14.93;;
46875;SDS011;32866;50.160;14.768;2022-12-26T02:33:13;25.80;;;14.73;;
46875;SDS011;32866;50.160;14.768;2022-12-26T02:38:42;26.52;;;16.45;;
46875;SDS011;32866;50.160;14.768;2022-12-26T02:41:22;29.17;;;16.33;;
46875;SDS011;32866;50.160;14.768;2022-12-26T02:47:06;28.97;;;16.17;;
46875;SDS011;32866;50.160;14.768;2022-12-26T02:52:26;30.23;;;17.23;;
46875;SDS011;32866;50.160;14.768;2022-12-26T02:55:19;35.00;;;18.37;;
46875;SDS011;32866;50.160;14.768;2022-12-26T02:58:17;28.40;;;17.37;;
46875;SDS011;32866;50.160;14.768;2022-12-26T03:01:06;27.40;;;16.48;;
46875;SDS011;32866;50.160;14.768;2022-12-26T03:03:56;25.00;;;16.00;;
46875;SDS011;32866;50.160;14.768;2022-12-26T03:09:35;31.43;;;17.67;;
46875;SDS011;32866;50.160;14.768;2022-12-26T03:15:27;31.97;;;16.20;;
46875;SDS011;32866;50.160;14.768;2022-12-26T03:18:15;26.40;;;15.73;;
46875;SDS011;32866;50.160;14.768;2022-12-26T03:20:43;28.13;;;15.73;;
46875;SDS011;32866;50.160;14.768;2022-12-26T03:23:13;28.20;;;17.13;;
46875;SDS011;32866;50.160;14.768;2022-12-26T03:28:32;32.53;;;15.53;;
46875;SDS011;32866;50.160;14.768;2022-12-26T03:30:59;22.27;;;15.07;;
46875;SDS011;32866;50.160;14.768;2022-12-26T03:33:32;32.47;;;15.80;;
46875;SDS011;32866;50.160;14.768;2022-12-26T03:42:45;26.37;;;16.33;;
46875;SDS011;32866;50.160;14.768;2022-12-26T03:45:38;31.20;;;15.03;;
46875;SDS011;32866;50.160;14.768;2022-12-26T03:51:34;31.67;;;18.20;;
46875;SDS011;32866;50.160;14.768;2022-12-26T03:55:10;31.30;;;17.33;;
46875;SDS011;32866;50.160;14.768;2022-12-26T04:01:05;31.63;;;16.77;;
46875;SDS011;32866;50.160;14.768;2022-12-26T04:03:54;33.30;;;18.17;;
46875;SDS011;32866;50.160;14.768;2022-12-26T04:09:40;38.00;;;19.73;;
46875;SDS011;32866;50.160;14.768;2022-12-26T04:12:28;30.07;;;17.93;;
46875;SDS011;32866;50.160;14.768;2022-12-26T04:15:17;31.83;;;19.07;;
46875;SDS011;32866;50.160;14.768;2022-12-26T04:18:07;30.70;;;17.87;;
46875;SDS011;32866;50.160;14.768;2022-12-26T04:21:01;29.50;;;18.93;;
46875;SDS011;32866;50.160;14.768;2022-12-26T04:23:44;33.27;;;18.13;;
46875;SDS011;32866;50.160;14.768;2022-12-26T04:26:31;33.80;;;18.93;;
46875;SDS011;32866;50.160;14.768;2022-12-26T04:29:21;25.87;;;16.63;;
46875;SDS011;32866;50.160;14.768;2022-12-26T04:32:10;33.33;;;17.87;;
46875;SDS011;32866;50.160;14.768;2022-12-26T04:35:05;32.10;;;18.83;;
46875;SDS011;32866;50.160;14.768;2022-12-26T04:37:55;33.93;;;19.00;;
46875;SDS011;32866;50.160;14.768;2022-12-26T04:40:41;24.47;;;15.60;;
46875;SDS011;32866;50.160;14.768;2022-12-26T04:43:29;30.83;;;18.20;;
46875;SDS011;32866;50.160;14.768;2022-12-26T04:46:15;34.67;;;16.83;;
46875;SDS011;32866;50.160;14.768;2022-12-26T04:48:44;28.67;;;16.83;;
46875;SDS011;32866;50.160;14.768;2022-12-26T04:51:30;27.93;;;17.97;;
46875;SDS011;32866;50.160;14.768;2022-12-26T04:53:55;31.13;;;16.25;;
46875;SDS011;32866;50.160;14.768;2022-12-26T04:56:21;22.85;;;15.65;;
46875;SDS011;32866;50.160;14.768;2022-12-26T04:58:46;28.73;;;18.05;;
46875;SDS011;32866;50.160;14.768;2022-12-26T05:01:12;34.53;;;17.55;;
46875;SDS011;32866;50.160;14.768;2022-12-26T05:03:55;34.40;;;18.83;;
46875;SDS011;32866;50.160;14.768;2022-12-26T05:06:39;32.57;;;17.43;;
46875;SDS011;32866;50.160;14.768;2022-12-26T05:09:23;28.20;;;16.47;;
46875;SDS011;32866;50.160;14.768;2022-12-26T05:12:01;27.73;;;16.73;;
46875;SDS011;32866;50.160;14.768;2022-12-26T05:14:28;32.57;;;17.40;;
46875;SDS011;32866;50.160;14.768;2022-12-26T05:16:55;31.40;;;18.10;;
46875;SDS011;32866;50.160;14.768;2022-12-26T05:19:43;29.23;;;17.38;;
46875;SDS011;32866;50.160;14.768;2022-12-26T05:22:27;32.67;;;16.90;;
46875;SDS011;32866;50.160;14.768;2022-12-26T05:25:20;30.73;;;17.48;;
46875;SDS011;32866;50.160;14.768;2022-12-26T05:28:11;30.20;;;16.17;;
46875;SDS011;32866;50.160;14.768;2022-12-26T05:30:56;27.77;;;16.47;;
46875;SDS011;32866;50.160;14.768;2022-12-26T05:33:22;29.52;;;16.67;;
46875;SDS011;32866;50.160;14.768;2022-12-26T05:36:06;33.70;;;17.13;;
46875;SDS011;32866;50.160;14.768;2022-12-26T05:38:33;26.07;;;16.83;;
46875;SDS011;32866;50.160;14.768;2022-12-26T05:40:59;34.00;;;17.23;;
46875;SDS011;32866;50.160;14.768;2022-12-26T05:43:24;28.80;;;16.92;;
46875;SDS011;32866;50.160;14.768;2022-12-26T05:45:50;28.30;;;16.40;;
46875;SDS011;32866;50.160;14.768;2022-12-26T05:48:15;31.48;;;17.52;;
46875;SDS011;32866;50.160;14.768;2022-12-26T05:50:40;27.10;;;17.52;;
46875;SDS011;32866;50.160;14.768;2022-12-26T05:53:06;31.50;;;16.02;;
46875;SDS011;32866;50.160;14.768;2022-12-26T05:55:31;30.15;;;16.90;;
46875;SDS011;32866;50.160;14.768;2022-12-26T05:57:58;28.45;;;17.15;;
46875;SDS011;32866;50.160;14.768;2022-12-26T06:00:24;23.87;;;14.73;;
46875;SDS011;32866;50.160;14.768;2022-12-26T06:02:49;28.95;;;15.88;;
46875;SDS011;32866;50.160;14.768;2022-12-26T06:05:15;26.80;;;14.63;;
46875;SDS011;32866;50.160;14.768;2022-12-26T06:07:40;29.50;;;15.20;;
46875;SDS011;32866;50.160;14.768;2022-12-26T06:10:06;27.75;;;15.60;;
46875;SDS011;32866;50.160;14.768;2022-12-26T06:12:32;29.35;;;15.77;;
46875;SDS011;32866;50.160;14.768;2022-12-26T06:14:58;30.50;;;16.07;;
46875;SDS011;32866;50.160;14.768;2022-12-26T06:17:24;29.23;;;18.05;;
46875;SDS011;32866;50.160;14.768;2022-12-26T06:19:49;30.58;;;16.10;;
46875;SDS011;32866;50.160;14.768;2022-12-26T06:22:14;29.45;;;16.40;;
46875;SDS011;32866;50.160;14.768;2022-12-26T06:24:40;24.83;;;16.17;;
46875;SDS011;32866;50.160;14.768;2022-12-26T06:27:05;25.33;;;14.38;;
46875;SDS011;32866;50.160;14.768;2022-12-26T06:29:31;26.73;;;17.10;;
46875;SDS011;32866;50.160;14.768;2022-12-26T06:31:56;28.13;;;17.52;;
46875;SDS011;32866;50.160;14.768;2022-12-26T06:34:22;24.45;;;15.40;;
46875;SDS011;32866;50.160;14.768;2022-12-26T06:36:47;37.10;;;16.15;;
46875;SDS011;32866;50.160;14.768;2022-12-26T06:39:13;28.13;;;15.55;;
46875;SDS011;32866;50.160;14.768;2022-12-26T06:41:38;31.88;;;16.13;;
46875;SDS011;32866;50.160;14.768;2022-12-26T06:44:03;23.73;;;15.13;;
46875;SDS011;32866;50.160;14.768;2022-12-26T06:46:29;25.80;;;14.70;;
46875;SDS011;32866;50.160;14.768;2022-12-26T06:48:54;34.20;;;17.75;;
46875;SDS011;32866;50.160;14.768;2022-12-26T06:51:21;28.08;;;17.00;;
46875;SDS011;32866;50.160;14.768;2022-12-26T06:53:49;30.30;;;17.30;;
46875;SDS011;32866;50.160;14.768;2022-12-26T06:56:18;32.77;;;18.23;;
46875;SDS011;32866;50.160;14.768;2022-12-26T06:58:45;31.57;;;18.30;;
46875;SDS011;32866;50.160;14.768;2022-12-26T07:01:11;29.63;;;17.27;;
46875;SDS011;32866;50.160;14.768;2022-12-26T07:03:38;32.97;;;19.23;;
46875;SDS011;32866;50.160;14.768;2022-12-26T07:06:05;31.02;;;18.33;;
46875;SDS011;32866;50.160;14.768;2022-12-26T07:08:34;32.33;;;18.50;;
46875;SDS011;32866;50.160;14.768;2022-12-26T07:11:13;30.67;;;18.17;;
46875;SDS011;32866;50.160;14.768;2022-12-26T07:13:46;30.43;;;18.47;;
46875;SDS011;32866;50.160;14.768;2022-12-26T07:16:19;28.37;;;17.43;;
46875;SDS011;32866;50.160;14.768;2022-12-26T07:18:44;30.05;;;17.65;;
46875;SDS011;32866;50.160;14.768;2022-12-26T07:21:11;30.23;;;17.20;;
46875;SDS011;32866;50.160;14.768;2022-12-26T07:23:38;29.77;;;17.87;;
46875;SDS011;32866;50.160;14.768;2022-12-26T07:26:06;29.27;;;18.27;;
46875;SDS011;32866;50.160;14.768;2022-12-26T07:28:32;29.58;;;17.25;;
46875;SDS011;32866;50.160;14.768;2022-12-26T07:30:57;28.73;;;17.48;;
46875;SDS011;32866;50.160;14.768;2022-12-26T07:33:24;26.67;;;17.47;;
46875;SDS011;32866;50.160;14.768;2022-12-26T07:35:51;27.70;;;16.57;;
46875;SDS011;32866;50.160;14.768;2022-12-26T07:38:17;28.55;;;17.05;;
46875;SDS011;32866;50.160;14.768;2022-12-26T07:40:42;31.85;;;16.45;;
46875;SDS011;32866;50.160;14.768;2022-12-26T07:43:07;28.50;;;16.15;;
46875;SDS011;32866;50.160;14.768;2022-12-26T07:45:33;26.33;;;17.63;;
46875;SDS011;32866;50.160;14.768;2022-12-26T07:47:58;28.77;;;17.52;;
46875;SDS011;32866;50.160;14.768;2022-12-26T07:50:24;32.03;;;16.58;;
46875;SDS011;32866;50.160;14.768;2022-12-26T07:52:51;29.93;;;17.20;;
46875;SDS011;32866;50.160;14.768;2022-12-26T07:55:17;29.08;;;16.52;;
46875;SDS011;32866;50.160;14.768;2022-12-26T07:57:43;33.13;;;18.23;;
46875;SDS011;32866;50.160;14.768;2022-12-26T08:00:16;25.77;;;15.73;;
46875;SDS011;32866;50.160;14.768;2022-12-26T08:02:44;32.63;;;16.47;;
46875;SDS011;32866;50.160;14.768;2022-12-26T08:05:13;26.13;;;16.67;;
46875;SDS011;32866;50.160;14.768;2022-12-26T08:10:04;29.30;;;16.97;;
46875;SDS011;32866;50.160;14.768;2022-12-26T08:12:33;33.83;;;17.85;;
46875;SDS011;32866;50.160;14.768;2022-12-26T08:15:00;30.10;;;16.00;;
46875;SDS011;32866;50.160;14.768;2022-12-26T08:17:28;35.77;;;16.70;;
46875;SDS011;32866;50.160;14.768;2022-12-26T08:19:57;27.93;;;16.10;;
46875;SDS011;32866;50.160;14.768;2022-12-26T08:22:39;33.83;;;16.83;;
46875;SDS011;32866;50.160;14.768;2022-12-26T08:25:15;33.90;;;18.80;;
46875;SDS011;32866;50.160;14.768;2022-12-26T08:27:40;27.10;;;17.50;;
46875;SDS011;32866;50.160;14.768;2022-12-26T08:30:06;32.05;;;18.70;;
46875;SDS011;32866;50.160;14.768;2022-12-26T08:32:32;30.70;;;18.75;;
46875;SDS011;32866;50.160;14.768;2022-12-26T08:34:57;32.35;;;18.55;;
46875;SDS011;32866;50.160;14.768;2022-12-26T08:37:23;33.35;;;18.10;;
46875;SDS011;32866;50.160;14.768;2022-12-26T08:39:49;35.35;;;19.20;;
46875;SDS011;32866;50.160;14.768;2022-12-26T08:42:16;32.47;;;18.33;;
46875;SDS011;32866;50.160;14.768;2022-12-26T08:44:42;35.42;;;18.67;;
46875;SDS011;32866;50.160;14.768;2022-12-26T08:47:07;32.83;;;19.90;;
46875;SDS011;32866;50.160;14.768;2022-12-26T08:49:33;32.15;;;18.95;;
46875;SDS011;32866;50.160;14.768;2022-12-26T08:51:58;31.45;;;17.50;;
46875;SDS011;32866;50.160;14.768;2022-12-26T08:54:23;41.95;;;20.30;;
46875;SDS011;32866;50.160;14.768;2022-12-26T08:56:49;59.22;;;30.90;;
46875;SDS011;32866;50.160;14.768;2022-12-26T08:59:14;57.85;;;30.05;;
46875;SDS011;32866;50.160;14.768;2022-12-26T09:01:40;67.70;;;32.22;;
46875;SDS011;32866;50.160;14.768;2022-12-26T09:04:05;56.85;;;28.42;;
46875;SDS011;32866;50.160;14.768;2022-12-26T09:06:32;51.33;;;25.48;;
46875;SDS011;32866;50.160;14.768;2022-12-26T09:08:59;40.93;;;23.23;;
46875;SDS011;32866;50.160;14.768;2022-12-26T09:11:24;46.22;;;26.45;;
46875;SDS011;32866;50.160;14.768;2022-12-26T09:16:17;43.70;;;23.47;;
46875;SDS011;32866;50.160;14.768;2022-12-26T09:18:44;43.97;;;23.53;;
46875;SDS011;32866;50.160;14.768;2022-12-26T09:21:11;43.60;;;21.53;;
46875;SDS011;32866;50.160;14.768;2022-12-26T09:23:38;31.47;;;19.57;;
46875;SDS011;32866;50.160;14.768;2022-12-26T09:26:14;27.63;;;17.37;;
46875;SDS011;32866;50.160;14.768;2022-12-26T09:28:41;28.80;;;16.20;;
46875;SDS011;32866;50.160;14.768;2022-12-26T09:31:09;29.42;;;19.38;;
46875;SDS011;32866;50.160;14.768;2022-12-26T09:33:36;28.93;;;17.13;;
46875;SDS011;32866;50.160;14.768;2022-12-26T09:36:06;33.00;;;18.33;;
46875;SDS011;32866;50.160;14.768;2022-12-26T09:38:34;37.37;;;20.27;;
46875;SDS011;32866;50.160;14.768;2022-12-26T09:49:09;33.87;;;19.07;;
46875;SDS011;32866;50.160;14.768;2022-12-26T09:51:39;27.93;;;16.47;;
46875;SDS011;32866;50.160;14.768;2022-12-26T09:54:06;31.97;;;17.70;;
46875;SDS011;32866;50.160;14.768;2022-12-26T09:56:42;28.00;;;18.73;;
46875;SDS011;32866;50.160;14.768;2022-12-26T09:59:14;31.27;;;18.47;;
46875;SDS011;32866;50.160;14.768;2022-12-26T10:01:43;28.33;;;16.37;;
46875;SDS011;32866;50.160;14.768;2022-12-26T10:04:21;27.88;;;17.17;;
46875;SDS011;32866;50.160;14.768;2022-12-26T10:06:51;29.57;;;16.67;;
46875;SDS011;32866;50.160;14.768;2022-12-26T10:09:35;31.17;;;18.07;;
46875;SDS011;32866;50.160;14.768;2022-12-26T10:14:49;29.90;;;17.00;;
46875;SDS011;32866;50.160;14.768;2022-12-26T10:22:26;32.87;;;18.20;;
46875;SDS011;32866;50.160;14.768;2022-12-26T10:25:15;29.97;;;18.40;;
46875;SDS011;32866;50.160;14.768;2022-12-26T10:27:44;33.10;;;17.63;;
46875;SDS011;32866;50.160;14.768;2022-12-26T10:30:15;29.17;;;18.10;;
46875;SDS011;32866;50.160;14.768;2022-12-26T10:32:46;26.57;;;17.20;;
46875;SDS011;32866;50.160;14.768;2022-12-26T10:35:22;26.60;;;16.33;;
46875;SDS011;32866;50.160;14.768;2022-12-26T10:38:03;28.17;;;16.00;;
46875;SDS011;32866;50.160;14.768;2022-12-26T10:40:37;24.53;;;16.30;;
46875;SDS011;32866;50.160;14.768;2022-12-26T10:48:22;25.10;;;16.03;;
46875;SDS011;32866;50.160;14.768;2022-12-26T10:50:52;28.43;;;16.17;;
46875;SDS011;32866;50.160;14.768;2022-12-26T10:53:17;28.95;;;16.60;;
46875;SDS011;32866;50.160;14.768;2022-12-26T10:55:42;36.05;;;17.10;;
46875;SDS011;32866;50.160;14.768;2022-12-26T10:58:15;30.13;;;16.08;;
46875;SDS011;32866;50.160;14.768;2022-12-26T11:00:42;27.97;;;15.97;;
46875;SDS011;32866;50.160;14.768;2022-12-26T11:03:09;25.75;;;14.93;;
46875;SDS011;32866;50.160;14.768;2022-12-26T11:05:42;22.90;;;13.00;;
46875;SDS011;32866;50.160;14.768;2022-12-26T11:13:39;17.67;;;10.70;;
46875;SDS011;32866;50.160;14.768;2022-12-26T11:16:10;18.50;;;10.80;;
46875;SDS011;32866;50.160;14.768;2022-12-26T11:18:37;16.75;;;9.82;;
46875;SDS011;32866;50.160;14.768;2022-12-26T11:21:12;12.30;;;9.50;;
46875;SDS011;32866;50.160;14.768;2022-12-26T11:23:41;14.40;;;7.53;;
46875;SDS011;32866;50.160;14.768;2022-12-26T11:26:17;11.32;;;8.02;;
46875;SDS011;32866;50.160;14.768;2022-12-26T11:28:43;13.32;;;7.15;;
46875;SDS011;32866;50.160;14.768;2022-12-26T11:31:13;12.05;;;5.70;;
46875;SDS011;32866;50.160;14.768;2022-12-26T11:33:48;8.07;;;4.50;;
46875;SDS011;32866;50.160;14.768;2022-12-26T11:38:50;5.20;;;3.55;;
46875;SDS011;32866;50.160;14.768;2022-12-26T11:46:42;7.83;;;4.90;;
46875;SDS011;32866;50.160;14.768;2022-12-26T11:49:16;6.10;;;3.63;;
46875;SDS011;32866;50.160;14.768;2022-12-26T11:51:50;7.20;;;3.17;;
46875;SDS011;32866;50.160;14.768;2022-12-26T11:54:25;5.20;;;3.23;;
46875;SDS011;32866;50.160;14.768;2022-12-26T11:57:12;4.47;;;1.83;;
46875;SDS011;32866;50.160;14.768;2022-12-26T11:59:42;1.95;;;1.60;;
46875;SDS011;32866;50.160;14.768;2022-12-26T12:04:39;4.50;;;2.17;;
46875;SDS011;32866;50.160;14.768;2022-12-26T12:07:10;3.00;;;2.20;;
46875;SDS011;32866;50.160;14.768;2022-12-26T12:09:52;3.53;;;2.13;;
46875;SDS011;32866;50.160;14.768;2022-12-26T12:12:37;2.60;;;1.70;;
46875;SDS011;32866;50.160;14.768;2022-12-26T12:15:17;3.97;;;2.10;;
46875;SDS011;32866;50.160;14.768;2022-12-26T12:29:44;4.07;;;2.50;;
46875;SDS011;32866;50.160;14.768;2022-12-26T12:43:17;10.13;;;2.40;;
46875;SDS011;32866;50.160;14.768;2022-12-26T12:51:10;3.93;;;2.20;;
46875;SDS011;32866;50.160;14.768;2022-12-26T12:54:34;3.13;;;2.17;;
46875;SDS011;32866;50.160;14.768;2022-12-26T13:02:16;2.33;;;2.00;;
46875;SDS011;32866;50.160;14.768;2022-12-26T13:04:55;2.27;;;1.67;;
46875;SDS011;32866;50.160;14.768;2022-12-26T13:07:42;2.20;;;1.93;;
46875;SDS011;32866;50.160;14.768;2022-12-26T13:10:15;4.07;;;2.37;;
46875;SDS011;32866;50.160;14.768;2022-12-26T13:12:46;3.60;;;2.70;;
46875;SDS011;32866;50.160;14.768;2022-12-26T13:17:56;3.97;;;2.20;;
46875;SDS011;32866;50.160;14.768;2022-12-26T13:23:41;6.57;;;2.73;;
46875;SDS011;32866;50.160;14.768;2022-12-26T13:26:30;4.83;;;2.17;;
46875;SDS011;32866;50.160;14.768;2022-12-26T13:29:02;4.17;;;2.87;;
46875;SDS011;32866;50.160;14.768;2022-12-26T13:31:36;4.60;;;2.57;;
46875;SDS011;32866;50.160;14.768;2022-12-26T13:34:03;4.30;;;2.80;;
46875;SDS011;32866;50.160;14.768;2022-12-26T13:41:26;4.40;;;2.60;;
46875;SDS011;32866;50.160;14.768;2022-12-26T13:54:35;9.17;;;6.90;;
46875;SDS011;32866;50.160;14.768;2022-12-26T14:00:02;7.70;;;3.43;;
46875;SDS011;32866;50.160;14.768;2022-12-26T14:03:00;6.57;;;5.47;;
46875;SDS011;32866;50.160;14.768;2022-12-26T14:08:30;4.43;;;2.38;;
46875;SDS011;32866;50.160;14.768;2022-12-26T14:11:12;2.73;;;2.07;;
46875;SDS011;32866;50.160;14.768;2022-12-26T14:19:38;3.07;;;2.10;;
46875;SDS011;32866;50.160;14.768;2022-12-26T14:22:09;3.23;;;2.50;;
46875;SDS011;32866;50.160;14.768;2022-12-26T14:29:56;4.28;;;3.20;;
46875;SDS011;32866;50.160;14.768;2022-12-26T14:35:30;5.10;;;2.20;;
46875;SDS011;32866;50.160;14.768;2022-12-26T14:38:36;2.37;;;2.10;;
46875;SDS011;32866;50.160;14.768;2022-12-26T14:41:15;3.00;;;2.23;;
46875;SDS011;32866;50.160;14.768;2022-12-26T14:47:01;3.00;;;2.43;;
46875;SDS011;32866;50.160;14.768;2022-12-26T14:54:56;3.93;;;2.77;;
46875;SDS011;32866;50.160;14.768;2022-12-26T14:57:41;2.63;;;2.40;;
46875;SDS011;32866;50.160;14.768;2022-12-26T15:00:14;3.67;;;2.80;;
46875;SDS011;32866;50.160;14.768;2022-12-26T15:05:25;5.10;;;2.83;;
46875;SDS011;32866;50.160;14.768;2022-12-26T15:08:19;4.37;;;2.40;;
46875;SDS011;32866;50.160;14.768;2022-12-26T15:21:54;2.70;;;2.07;;
46875;SDS011;32866;50.160;14.768;2022-12-26T15:32:51;2.87;;;2.00;;
46875;SDS011;32866;50.160;14.768;2022-12-26T15:35:33;3.80;;;2.40;;
46875;SDS011;32866;50.160;14.768;2022-12-26T15:38:18;3.17;;;2.87;;
46875;SDS011;32866;50.160;14.768;2022-12-26T15:46:34;5.70;;;5.10;;
46875;SDS011;32866;50.160;14.768;2022-12-26T15:59:53;5.50;;;4.20;;
46875;SDS011;32866;50.160;14.768;2022-12-26T16:04:51;3.53;;;2.80;;
46875;SDS011;32866;50.160;14.768;2022-12-26T16:13:13;7.07;;;4.70;;
46875;SDS011;32866;50.160;14.768;2022-12-26T16:15:50;7.20;;;4.63;;
46875;SDS011;32866;50.160;14.768;2022-12-26T16:18:21;12.37;;;8.17;;
46875;SDS011;32866;50.160;14.768;2022-12-26T16:20:51;14.27;;;9.10;;
46875;SDS011;32866;50.160;14.768;2022-12-26T16:23:39;6.72;;;4.68;;
46875;SDS011;32866;50.160;14.768;2022-12-26T16:26:13;13.47;;;7.43;;
46875;SDS011;32866;50.160;14.768;2022-12-26T16:28:42;11.93;;;6.37;;
46875;SDS011;32866;50.160;14.768;2022-12-26T16:33:38;3.77;;;2.30;;
46875;SDS011;32866;50.160;14.768;2022-12-26T16:36:07;2.80;;;1.87;;
46875;SDS011;32866;50.160;14.768;2022-12-26T16:38:35;4.27;;;2.90;;
46875;SDS011;32866;50.160;14.768;2022-12-26T16:41:02;2.77;;;2.13;;
46875;SDS011;32866;50.160;14.768;2022-12-26T16:43:42;2.53;;;1.90;;
46875;SDS011;32866;50.160;14.768;2022-12-26T16:46:08;1.77;;;1.60;;
46875;SDS011;32866;50.160;14.768;2022-12-26T16:48:36;2.13;;;1.90;;
46875;SDS011;32866;50.160;14.768;2022-12-26T16:51:06;2.27;;;1.87;;
46875;SDS011;32866;50.160;14.768;2022-12-26T16:53:51;3.50;;;2.27;;
46875;SDS011;32866;50.160;14.768;2022-12-26T16:59:03;6.80;;;3.80;;
46875;SDS011;32866;50.160;14.768;2022-12-26T17:01:36;5.63;;;3.73;;
46875;SDS011;32866;50.160;14.768;2022-12-26T17:06:47;3.63;;;2.73;;
46875;SDS011;32866;50.160;14.768;2022-12-26T17:09:16;4.00;;;2.40;;
46875;SDS011;32866;50.160;14.768;2022-12-26T17:11:51;3.67;;;2.70;;
46875;SDS011;32866;50.160;14.768;2022-12-26T17:14:24;4.90;;;2.10;;
46875;SDS011;32866;50.160;14.768;2022-12-26T17:16:59;2.30;;;1.90;;
46875;SDS011;32866;50.160;14.768;2022-12-26T17:19:27;2.00;;;1.70;;
46875;SDS011;32866;50.160;14.768;2022-12-26T17:24:49;3.07;;;2.23;;
46875;SDS011;32866;50.160;14.768;2022-12-26T17:27:17;2.78;;;1.98;;
46875;SDS011;32866;50.160;14.768;2022-12-26T17:34:50;18.67;;;7.80;;
46875;SDS011;32866;50.160;14.768;2022-12-26T17:37:20;10.85;;;6.22;;
46875;SDS011;32866;50.160;14.768;2022-12-26T17:39:51;32.20;;;11.80;;
46875;SDS011;32866;50.160;14.768;2022-12-26T17:42:48;15.43;;;6.27;;
46875;SDS011;32866;50.160;14.768;2022-12-26T17:45:18;5.27;;;4.40;;
46875;SDS011;32866;50.160;14.768;2022-12-26T17:47:46;3.27;;;2.93;;
46875;SDS011;32866;50.160;14.768;2022-12-26T17:50:11;4.43;;;3.00;;
46875;SDS011;32866;50.160;14.768;2022-12-26T17:52:37;2.33;;;1.88;;
46875;SDS011;32866;50.160;14.768;2022-12-26T17:55:05;3.47;;;2.40;;
46875;SDS011;32866;50.160;14.768;2022-12-26T17:57:41;3.33;;;2.47;;
46875;SDS011;32866;50.160;14.768;2022-12-26T18:00:14;8.75;;;4.40;;
46875;SDS011;32866;50.160;14.768;2022-12-26T18:05:08;3.57;;;2.53;;
46875;SDS011;32866;50.160;14.768;2022-12-26T18:07:34;5.15;;;3.75;;
46875;SDS011;32866;50.160;14.768;2022-12-26T18:10:00;3.92;;;2.47;;
46875;SDS011;32866;50.160;14.768;2022-12-26T18:12:26;2.97;;;2.63;;
46875;SDS011;32866;50.160;14.768;2022-12-26T18:14:52;4.38;;;2.33;;
46875;SDS011;32866;50.160;14.768;2022-12-26T18:17:17;4.82;;;3.17;;
46875;SDS011;32866;50.160;14.768;2022-12-26T18:19:43;3.65;;;2.65;;
46875;SDS011;32866;50.160;14.768;2022-12-26T18:22:13;4.97;;;2.60;;
46875;SDS011;32866;50.160;14.768;2022-12-26T18:24:39;4.87;;;2.60;;
46875;SDS011;32866;50.160;14.768;2022-12-26T18:27:05;2.38;;;2.08;;
46875;SDS011;32866;50.160;14.768;2022-12-26T18:29:30;2.15;;;1.80;;
46875;SDS011;32866;50.160;14.768;2022-12-26T18:31:56;5.05;;;2.70;;
46875;SDS011;32866;50.160;14.768;2022-12-26T18:36:48;4.00;;;2.33;;
46875;SDS011;32866;50.160;14.768;2022-12-26T18:39:13;3.95;;;2.40;;
46875;SDS011;32866;50.160;14.768;2022-12-26T18:44:04;5.80;;;2.90;;
46875;SDS011;32866;50.160;14.768;2022-12-26T18:46:30;6.53;;;4.03;;
46875;SDS011;32866;50.160;14.768;2022-12-26T18:48:55;3.53;;;3.08;;
46875;SDS011;32866;50.160;14.768;2022-12-26T18:51:22;4.63;;;3.85;;